sensor_id;sensor_type;location;lat;lon;timestamp;pressure;altitude;pressure_sealevel;temperature;humidity
38197;BME280;26543;51.976;4.616;2023-05-19T00:01:04;52672.91;;;-140.72;100.00
38197;BME280;26543;51.976;4.616;2023-05-19T00:03:31;52664.81;;;-140.72;100.00
38197;BME280;26543;51.976;4.616;2023-05-19T00:05:57;52717.56;;;-140.72;100.00
38197;BME280;26543;51.976;4.616;2023-05-19T00:08:38;52705.38;;;-140.72;100.00
38197;BME280;26543;51.976;4.616;2023-05-19T00:11:03;52670.88;;;-140.72;100.00
38197;BME280;26543;51.976;4.616;2023-05-19T00:13:46;52715.53;;;-140.72;100.00
38197;BME280;26543;51.976;4.616;2023-05-19T00:16:13;52687.13;;;-140.72;100.00
38197;BME280;26543;51.976;4.616;2023-05-19T00:18:38;52681.03;;;-140.72;100.00
38197;BME280;26543;51.976;4.616;2023-05-19T00:21:04;52705.38;;;-140.72;100.00
38197;BME280;26543;51.976;4.616;2023-05-19T00:23:29;52672.91;;;-140.72;100.00
38197;BME280;26543;51.976;4.616;2023-05-19T00:25:55;52719.59;;;-140.72;100.00
38197;BME280;26543;51.976;4.616;2023-05-19T00:28:20;52705.38;;;-140.72;100.00
38197;BME280;26543;51.976;4.616;2023-05-19T00:30:45;52703.34;;;-140.72;100.00
38197;BME280;26543;51.976;4.616;2023-05-19T00:33:10;52705.38;;;-140.72;100.00
38197;BME280;26543;51.976;4.616;2023-05-19T00:35:35;52713.50;;;-140.72;100.00
38197;BME280;26543;51.976;4.616;2023-05-19T00:38:06;52683.06;;;-140.72;100.00
38197;BME280;26543;51.976;4.616;2023-05-19T00:40:31;52719.59;;;-140.72;100.00
38197;BME280;26543;51.976;4.616;2023-05-19T00:42:57;52709.44;;;-140.72;100.00
38197;BME280;26543;51.976;4.616;2023-05-19T00:45:23;52741.91;;;-140.72;100.00
38197;BME280;26543;51.976;4.616;2023-05-19T00:50:18;52689.16;;;-140.72;100.00
38197;BME280;26543;51.976;4.616;2023-05-19T00:52:43;52733.78;;;-140.72;100.00
38197;BME280;26543;51.976;4.616;2023-05-19T00:55:09;52711.47;;;-140.72;100.00
38197;BME280;26543;51.976;4.616;2023-05-19T00:57:34;52715.53;;;-140.72;100.00
38197;BME280;26543;51.976;4.616;2023-05-19T01:00:00;52735.81;;;-140.72;100.00
38197;BME280;26543;51.976;4.616;2023-05-19T01:02:25;52670.88;;;-140.72;100.00
38197;BME280;26543;51.976;4.616;2023-05-19T01:04:53;52735.81;;;-140.72;100.00
38197;BME280;26543;51.976;4.616;2023-05-19T01:07:24;52666.84;;;-140.72;100.00
38197;BME280;26543;51.976;4.616;2023-05-19T01:09:49;52733.78;;;-140.72;100.00
38197;BME280;26543;51.976;4.616;2023-05-19T01:12:15;52737.84;;;-140.72;100.00
38197;BME280;26543;51.976;4.616;2023-05-19T01:14:41;52725.69;;;-140.72;100.00
38197;BME280;26543;51.976;4.616;2023-05-19T01:17:07;52715.53;;;-140.72;100.00
38197;BME280;26543;51.976;4.616;2023-05-19T01:19:55;52756.13;;;-140.72;100.00
38197;BME280;26543;51.976;4.616;2023-05-19T01:27:37;52711.47;;;-140.72;100.00
38197;BME280;26543;51.976;4.616;2023-05-19T01:32:33;52703.34;;;-140.72;100.00
38197;BME280;26543;51.976;4.616;2023-05-19T01:34:59;52733.78;;;-140.72;100.00
38197;BME280;26543;51.976;4.616;2023-05-19T01:37:25;52723.66;;;-140.72;100.00
38197;BME280;26543;51.976;4.616;2023-05-19T01:39:51;52707.41;;;-140.72;100.00
38197;BME280;26543;51.976;4.616;2023-05-19T01:42:16;52687.13;;;-140.72;100.00
38197;BME280;26543;51.976;4.616;2023-05-19T01:44:41;52737.84;;;-140.72;100.00
38197;BME280;26543;51.976;4.616;2023-05-19T01:47:08;52723.66;;;-140.72;100.00
38197;BME280;26543;51.976;4.616;2023-05-19T01:52:22;52715.53;;;-140.72;100.00
38197;BME280;26543;51.976;4.616;2023-05-19T01:54:55;52721.63;;;-140.72;100.00
38197;BME280;26543;51.976;4.616;2023-05-19T01:57:32;52695.25;;;-140.72;100.00
38197;BME280;26543;51.976;4.616;2023-05-19T02:00:05;52739.88;;;-140.72;100.00
38197;BME280;26543;51.976;4.616;2023-05-19T02:02:45;52735.81;;;-140.72;100.00
38197;BME280;26543;51.976;4.616;2023-05-19T02:05:58;52774.38;;;-140.72;100.00
38197;BME280;26543;51.976;4.616;2023-05-19T02:08:13;52721.63;;;-140.72;100.00
38197;BME280;26543;51.976;4.616;2023-05-19T02:10:40;52719.59;;;-140.72;100.00
38197;BME280;26543;51.976;4.616;2023-05-19T02:13:09;52715.53;;;-140.72;100.00
38197;BME280;26543;51.976;4.616;2023-05-19T02:15:41;52719.59;;;-140.72;100.00
38197;BME280;26543;51.976;4.616;2023-05-19T02:18:11;52725.69;;;-140.72;100.00
38197;BME280;26543;51.976;4.616;2023-05-19T02:20:38;52731.75;;;-140.72;100.00
38197;BME280;26543;51.976;4.616;2023-05-19T02:23:03;52721.63;;;-140.72;100.00
38197;BME280;26543;51.976;4.616;2023-05-19T02:25:29;52743.94;;;-140.72;100.00
38197;BME280;26543;51.976;4.616;2023-05-19T02:27:54;52701.31;;;-140.72;100.00
38197;BME280;26543;51.976;4.616;2023-05-19T02:30:19;52748.00;;;-140.72;100.00
38197;BME280;26543;51.976;4.616;2023-05-19T02:32:45;52721.63;;;-140.72;100.00
38197;BME280;26543;51.976;4.616;2023-05-19T02:35:10;52695.25;;;-140.72;100.00
38197;BME280;26543;51.976;4.616;2023-05-19T02:37:36;52743.94;;;-140.72;100.00
38197;BME280;26543;51.976;4.616;2023-05-19T02:40:01;52748.00;;;-140.72;100.00
38197;BME280;26543;51.976;4.616;2023-05-19T02:42:26;52695.25;;;-140.72;100.00
38197;BME280;26543;51.976;4.616;2023-05-19T02:44:53;52727.72;;;-140.72;100.00
38197;BME280;26543;51.976;4.616;2023-05-19T02:47:18;52750.03;;;-140.72;100.00
38197;BME280;26543;51.976;4.616;2023-05-19T02:49:43;52674.94;;;-140.72;100.00
38197;BME280;26543;51.976;4.616;2023-05-19T02:52:09;52743.94;;;-140.72;100.00
38197;BME280;26543;51.976;4.616;2023-05-19T02:54:34;52731.75;;;-140.72;100.00
38197;BME280;26543;51.976;4.616;2023-05-19T02:56:59;52743.94;;;-140.72;100.00
38197;BME280;26543;51.976;4.616;2023-05-19T02:59:25;52735.81;;;-140.72;100.00
38197;BME280;26543;51.976;4.616;2023-05-19T03:01:53;52731.75;;;-140.72;100.00
38197;BME280;26543;51.976;4.616;2023-05-19T03:04:19;52741.91;;;-140.72;100.00
38197;BME280;26543;51.976;4.616;2023-05-19T03:06:44;52770.31;;;-140.72;100.00
38197;BME280;26543;51.976;4.616;2023-05-19T03:09:09;52772.34;;;-140.72;100.00
38197;BME280;26543;51.976;4.616;2023-05-19T03:11:35;52733.78;;;-140.72;100.00
38197;BME280;26543;51.976;4.616;2023-05-19T03:14:00;52750.03;;;-140.72;100.00
38197;BME280;26543;51.976;4.616;2023-05-19T03:16:25;52768.28;;;-140.72;100.00
38197;BME280;26543;51.976;4.616;2023-05-19T03:18:52;52754.09;;;-140.72;100.00
38197;BME280;26543;51.976;4.616;2023-05-19T03:21:17;52743.94;;;-140.72;100.00
38197;BME280;26543;51.976;4.616;2023-05-19T03:23:42;52743.94;;;-140.72;100.00
38197;BME280;26543;51.976;4.616;2023-05-19T03:26:07;52743.94;;;-140.72;100.00
38197;BME280;26543;51.976;4.616;2023-05-19T03:28:32;52745.97;;;-140.72;100.00
38197;BME280;26543;51.976;4.616;2023-05-19T03:30:58;52745.97;;;-140.72;100.00
38197;BME280;26543;51.976;4.616;2023-05-19T03:33:23;52715.53;;;-140.72;100.00
38197;BME280;26543;51.976;4.616;2023-05-19T03:35:48;52711.47;;;-140.72;100.00
38197;BME280;26543;51.976;4.616;2023-05-19T03:38:14;52760.19;;;-140.72;100.00
38197;BME280;26543;51.976;4.616;2023-05-19T03:40:39;52784.53;;;-140.72;100.00
38197;BME280;26543;51.976;4.616;2023-05-19T03:43:05;52756.13;;;-140.72;100.00
38197;BME280;26543;51.976;4.616;2023-05-19T03:45:31;52752.06;;;-140.72;100.00
38197;BME280;26543;51.976;4.616;2023-05-19T03:47:56;52776.41;;;-140.72;100.00
38197;BME280;26543;51.976;4.616;2023-05-19T03:50:22;52766.25;;;-140.72;100.00
38197;BME280;26543;51.976;4.616;2023-05-19T03:52:47;52752.06;;;-140.72;100.00
38197;BME280;26543;51.976;4.616;2023-05-19T03:55:12;52735.81;;;-140.72;100.00
38197;BME280;26543;51.976;4.616;2023-05-19T03:57:41;52764.25;;;-140.72;100.00
38197;BME280;26543;51.976;4.616;2023-05-19T04:00:08;52782.50;;;-140.72;100.00
38197;BME280;26543;51.976;4.616;2023-05-19T04:02:35;52774.38;;;-140.72;100.00
38197;BME280;26543;51.976;4.616;2023-05-19T04:05:00;52766.25;;;-140.72;100.00
38197;BME280;26543;51.976;4.616;2023-05-19T04:07:28;52745.97;;;-140.72;100.00
38197;BME280;26543;51.976;4.616;2023-05-19T04:09:53;52784.53;;;-140.72;100.00
38197;BME280;26543;51.976;4.616;2023-05-19T04:12:19;52764.25;;;-140.72;100.00
38197;BME280;26543;51.976;4.616;2023-05-19T04:14:44;52798.72;;;-140.72;100.00
38197;BME280;26543;51.976;4.616;2023-05-19T04:17:09;52792.66;;;-140.72;100.00
38197;BME280;26543;51.976;4.616;2023-05-19T04:19:34;52788.59;;;-140.72;100.00
38197;BME280;26543;51.976;4.616;2023-05-19T04:22:00;52776.41;;;-140.72;100.00
38197;BME280;26543;51.976;4.616;2023-05-19T04:24:25;52802.78;;;-140.72;100.00
38197;BME280;26543;51.976;4.616;2023-05-19T04:26:50;52760.19;;;-140.72;100.00
38197;BME280;26543;51.976;4.616;2023-05-19T04:29:16;52756.13;;;-140.72;100.00
38197;BME280;26543;51.976;4.616;2023-05-19T04:31:42;52713.50;;;-140.72;100.00
38197;BME280;26543;51.976;4.616;2023-05-19T04:34:08;52745.97;;;-140.72;100.00
38197;BME280;26543;51.976;4.616;2023-05-19T04:36:33;52808.88;;;-140.72;100.00
38197;BME280;26543;51.976;4.616;2023-05-19T04:38:59;52768.28;;;-140.72;100.00
38197;BME280;26543;51.976;4.616;2023-05-19T04:41:27;52764.25;;;-140.72;100.00
38197;BME280;26543;51.976;4.616;2023-05-19T04:43:52;52762.22;;;-140.72;100.00
38197;BME280;26543;51.976;4.616;2023-05-19T04:46:17;52748.00;;;-140.72;100.00
38197;BME280;26543;51.976;4.616;2023-05-19T04:48:48;52711.47;;;-140.72;100.00
38197;BME280;26543;51.976;4.616;2023-05-19T04:51:14;52766.25;;;-140.72;100.00
38197;BME280;26543;51.976;4.616;2023-05-19T04:53:40;52717.56;;;-140.72;100.00
38197;BME280;26543;51.976;4.616;2023-05-19T04:56:05;52739.88;;;-140.72;100.00
38197;BME280;26543;51.976;4.616;2023-05-19T04:58:31;52741.91;;;-140.72;100.00
38197;BME280;26543;51.976;4.616;2023-05-19T05:00:56;52717.56;;;-140.72;100.00
38197;BME280;26543;51.976;4.616;2023-05-19T05:03:24;52748.00;;;-140.72;100.00
38197;BME280;26543;51.976;4.616;2023-05-19T05:05:50;52737.84;;;-140.72;100.00
38197;BME280;26543;51.976;4.616;2023-05-19T05:08:15;52711.47;;;-140.72;100.00
38197;BME280;26543;51.976;4.616;2023-05-19T05:10:46;52721.63;;;-140.72;100.00
38197;BME280;26543;51.976;4.616;2023-05-19T05:13:12;52756.13;;;-140.72;100.00
38197;BME280;26543;51.976;4.616;2023-05-19T05:15:37;52764.25;;;-140.72;100.00
38197;BME280;26543;51.976;4.616;2023-05-19T05:18:02;52758.16;;;-140.72;100.00
38197;BME280;26543;51.976;4.616;2023-05-19T05:20:28;52721.63;;;-140.72;100.00
38197;BME280;26543;51.976;4.616;2023-05-19T05:22:54;52752.06;;;-140.72;100.00
38197;BME280;26543;51.976;4.616;2023-05-19T05:25:21;52731.75;;;-140.72;100.00
38197;BME280;26543;51.976;4.616;2023-05-19T05:27:46;52745.97;;;-140.72;100.00
38197;BME280;26543;51.976;4.616;2023-05-19T05:30:11;52756.13;;;-140.72;100.00
38197;BME280;26543;51.976;4.616;2023-05-19T05:32:36;52719.59;;;-140.72;100.00
38197;BME280;26543;51.976;4.616;2023-05-19T05:35:02;52711.47;;;-140.72;100.00
38197;BME280;26543;51.976;4.616;2023-05-19T05:37:29;52709.44;;;-140.72;100.00
38197;BME280;26543;51.976;4.616;2023-05-19T05:39:54;52741.91;;;-140.72;100.00
38197;BME280;26543;51.976;4.616;2023-05-19T05:42:19;52739.88;;;-140.72;100.00
38197;BME280;26543;51.976;4.616;2023-05-19T05:44:44;52772.34;;;-140.72;100.00
38197;BME280;26543;51.976;4.616;2023-05-19T05:47:10;52737.84;;;-140.72;100.00
38197;BME280;26543;51.976;4.616;2023-05-19T05:49:36;52693.22;;;-140.72;100.00
38197;BME280;26543;51.976;4.616;2023-05-19T05:52:02;52676.97;;;-140.72;100.00
38197;BME280;26543;51.976;4.616;2023-05-19T05:54:27;52689.16;;;-140.72;100.00
38197;BME280;26543;51.976;4.616;2023-05-19T05:56:53;52683.06;;;-140.72;100.00
38197;BME280;26543;51.976;4.616;2023-05-19T05:59:18;52691.19;;;-140.72;100.00
38197;BME280;26543;51.976;4.616;2023-05-19T06:01:44;52703.34;;;-140.72;100.00
38197;BME280;26543;51.976;4.616;2023-05-19T06:04:09;52672.91;;;-140.72;100.00
38197;BME280;26543;51.976;4.616;2023-05-19T06:06:34;52705.38;;;-140.72;100.00
38197;BME280;26543;51.976;4.616;2023-05-19T06:09:01;52679.00;;;-140.72;100.00
38197;BME280;26543;51.976;4.616;2023-05-19T06:11:27;52681.03;;;-140.72;100.00
38197;BME280;26543;51.976;4.616;2023-05-19T06:13:52;52687.13;;;-140.72;100.00
38197;BME280;26543;51.976;4.616;2023-05-19T06:16:22;52652.63;;;-140.72;100.00
38197;BME280;26543;51.976;4.616;2023-05-19T06:21:32;52672.91;;;-140.72;100.00
38197;BME280;26543;51.976;4.616;2023-05-19T06:23:57;52664.81;;;-140.72;100.00
38197;BME280;26543;51.976;4.616;2023-05-19T06:26:22;52638.41;;;-140.72;100.00
38197;BME280;26543;51.976;4.616;2023-05-19T06:28:47;52650.59;;;-140.72;100.00
38197;BME280;26543;51.976;4.616;2023-05-19T06:31:13;52662.78;;;-140.72;100.00
38197;BME280;26543;51.976;4.616;2023-05-19T06:33:38;52628.28;;;-140.72;100.00
38197;BME280;26543;51.976;4.616;2023-05-19T06:36:06;52640.44;;;-140.72;100.00
38197;BME280;26543;51.976;4.616;2023-05-19T06:38:33;52642.47;;;-140.72;100.00
38197;BME280;26543;51.976;4.616;2023-05-19T06:40:59;52642.47;;;-140.72;100.00
38197;BME280;26543;51.976;4.616;2023-05-19T06:43:24;52632.34;;;-140.72;100.00
38197;BME280;26543;51.976;4.616;2023-05-19T06:45:49;52624.22;;;-140.72;100.00
38197;BME280;26543;51.976;4.616;2023-05-19T06:48:14;52638.41;;;-140.72;100.00
38197;BME280;26543;51.976;4.616;2023-05-19T06:50:40;52650.59;;;-140.72;100.00
38197;BME280;26543;51.976;4.616;2023-05-19T06:53:05;52622.19;;;-140.72;100.00
38197;BME280;26543;51.976;4.616;2023-05-19T06:55:30;52595.81;;;-140.72;100.00
38197;BME280;26543;51.976;4.616;2023-05-19T06:57:56;52642.47;;;-140.72;100.00
38197;BME280;26543;51.976;4.616;2023-05-19T07:00:21;52614.06;;;-140.72;100.00
38197;BME280;26543;51.976;4.616;2023-05-19T07:02:46;52618.13;;;-140.72;100.00
38197;BME280;26543;51.976;4.616;2023-05-19T07:05:11;52622.19;;;-140.72;100.00
38197;BME280;26543;51.976;4.616;2023-05-19T07:07:37;52626.25;;;-140.72;100.00
38197;BME280;26543;51.976;4.616;2023-05-19T07:10:02;52650.59;;;-140.72;100.00
38197;BME280;26543;51.976;4.616;2023-05-19T07:12:27;52595.81;;;-140.72;100.00
38197;BME280;26543;51.976;4.616;2023-05-19T07:17:27;52589.72;;;-140.72;100.00
38197;BME280;26543;51.976;4.616;2023-05-19T07:19:52;52614.06;;;-140.72;100.00
38197;BME280;26543;51.976;4.616;2023-05-19T07:22:18;52620.16;;;-140.72;100.00
38197;BME280;26543;51.976;4.616;2023-05-19T07:24:43;52593.78;;;-140.72;100.00
38197;BME280;26543;51.976;4.616;2023-05-19T07:27:08;52577.53;;;-140.72;100.00
38197;BME280;26543;51.976;4.616;2023-05-19T07:29:33;52589.72;;;-140.72;100.00
38197;BME280;26543;51.976;4.616;2023-05-19T07:31:59;52595.81;;;-140.72;100.00
38197;BME280;26543;51.976;4.616;2023-05-19T07:34:24;52575.50;;;-140.72;100.00
38197;BME280;26543;51.976;4.616;2023-05-19T07:36:49;52551.16;;;-140.72;100.00
38197;BME280;26543;51.976;4.616;2023-05-19T07:39:15;52545.06;;;-140.72;100.00
38197;BME280;26543;51.976;4.616;2023-05-19T07:41:40;52528.84;;;-140.72;82.67
38197;BME280;26543;51.976;4.616;2023-05-19T07:44:06;52508.56;;;-140.72;44.51
38197;BME280;26543;51.976;4.616;2023-05-19T07:46:35;52553.19;;;-140.72;34.67
38197;BME280;26543;51.976;4.616;2023-05-19T07:49:00;52561.31;;;-140.72;28.10
38197;BME280;26543;51.976;4.616;2023-05-19T07:51:25;52478.13;;;-140.72;1.33
38197;BME280;26543;51.976;4.616;2023-05-19T07:53:51;52504.50;;;-140.72;0.00
38197;BME280;26543;51.976;4.616;2023-05-19T07:56:16;52482.16;;;-140.72;0.00
38197;BME280;26543;51.976;4.616;2023-05-19T07:58:42;52528.84;;;-140.72;0.00
38197;BME280;26543;51.976;4.616;2023-05-19T08:01:07;52463.91;;;-140.72;0.00
38197;BME280;26543;51.976;4.616;2023-05-19T08:03:32;52506.53;;;-140.72;0.00
38197;BME280;26543;51.976;4.616;2023-05-19T08:05:57;52472.03;;;-140.72;0.00
38197;BME280;26543;51.976;4.616;2023-05-19T08:08:23;52455.78;;;-140.72;0.00
38197;BME280;26543;51.976;4.616;2023-05-19T08:10:48;52465.94;;;-140.72;0.00
38197;BME280;26543;51.976;4.616;2023-05-19T08:13:13;52476.09;;;-140.72;0.00
38197;BME280;26543;51.976;4.616;2023-05-19T08:15:41;52451.72;;;-140.72;0.00
38197;BME280;26543;51.976;4.616;2023-05-19T08:18:06;52433.47;;;-140.72;0.00
38197;BME280;26543;51.976;4.616;2023-05-19T08:20:32;52419.28;;;-140.72;0.00
38197;BME280;26543;51.976;4.616;2023-05-19T08:22:57;52472.03;;;-140.72;0.00
38197;BME280;26543;51.976;4.616;2023-05-19T08:25:23;52394.91;;;-140.72;0.00
38197;BME280;26543;51.976;4.616;2023-05-19T08:27:48;52451.72;;;-140.72;0.00
38197;BME280;26543;51.976;4.616;2023-05-19T08:30:13;52407.09;;;-140.72;0.00
38197;BME280;26543;51.976;4.616;2023-05-19T08:32:39;52398.97;;;-140.72;0.00
38197;BME280;26543;51.976;4.616;2023-05-19T08:35:04;52394.91;;;-140.72;0.00
38197;BME280;26543;51.976;4.616;2023-05-19T08:37:29;52396.94;;;-140.72;0.00
38197;BME280;26543;51.976;4.616;2023-05-19T08:39:55;52382.75;;;-140.72;0.00
38197;BME280;26543;51.976;4.616;2023-05-19T08:42:21;52372.59;;;-140.72;0.00
38197;BME280;26543;51.976;4.616;2023-05-19T08:44:46;52380.72;;;-140.72;0.00
38197;BME280;26543;51.976;4.616;2023-05-19T08:47:11;52370.56;;;-140.72;0.00
38197;BME280;26543;51.976;4.616;2023-05-19T08:49:44;52338.09;;;-140.72;0.00
38197;BME280;26543;51.976;4.616;2023-05-19T08:54:36;52332.03;;;-140.72;0.00
38197;BME280;26543;51.976;4.616;2023-05-19T08:57:05;52325.94;;;-140.72;0.00
38197;BME280;26543;51.976;4.616;2023-05-19T08:59:30;52277.22;;;-140.72;0.00
38197;BME280;26543;51.976;4.616;2023-05-19T09:01:56;52285.34;;;-140.72;0.00
38197;BME280;26543;51.976;4.616;2023-05-19T09:04:22;52285.34;;;-140.72;0.00
38197;BME280;26543;51.976;4.616;2023-05-19T09:06:48;52283.31;;;-140.72;0.00
38197;BME280;26543;51.976;4.616;2023-05-19T09:09:14;52250.84;;;-140.72;0.00
38197;BME280;26543;51.976;4.616;2023-05-19T09:11:39;52277.22;;;-140.72;0.00
38197;BME280;26543;51.976;4.616;2023-05-19T09:14:05;52285.34;;;-140.72;0.00
38197;BME280;26543;51.976;4.616;2023-05-19T09:16:31;52273.19;;;-140.72;0.00
38197;BME280;26543;51.976;4.616;2023-05-19T09:18:57;52216.34;;;-140.72;0.00
38197;BME280;26543;51.976;4.616;2023-05-19T09:21:27;52228.53;;;-140.72;0.00
38197;BME280;26543;51.976;4.616;2023-05-19T09:23:56;52200.13;;;-140.72;0.00
38197;BME280;26543;51.976;4.616;2023-05-19T09:26:22;52165.63;;;-140.72;0.00
38197;BME280;26543;51.976;4.616;2023-05-19T09:28:47;52165.63;;;-140.72;0.00
38197;BME280;26543;51.976;4.616;2023-05-19T09:31:13;52175.78;;;-140.72;0.00
38197;BME280;26543;51.976;4.616;2023-05-19T09:33:39;52179.84;;;-140.72;0.00
38197;BME280;26543;51.976;4.616;2023-05-19T09:36:06;52106.78;;;-140.72;0.00
38197;BME280;26543;51.976;4.616;2023-05-19T09:38:37;52127.09;;;-140.72;0.00
38197;BME280;26543;51.976;4.616;2023-05-19T09:41:03;52135.19;;;-140.72;0.00
38197;BME280;26543;51.976;4.616;2023-05-19T09:43:29;52196.06;;;-140.72;0.00
38197;BME280;26543;51.976;4.616;2023-05-19T09:45:59;52098.69;;;-140.72;0.00
38197;BME280;26543;51.976;4.616;2023-05-19T09:48:25;52104.75;;;-140.72;0.00
38197;BME280;26543;51.976;4.616;2023-05-19T09:50:51;52198.09;;;-140.72;0.00
38197;BME280;26543;51.976;4.616;2023-05-19T09:53:17;52110.84;;;-140.72;0.00
38197;BME280;26543;51.976;4.616;2023-05-19T09:55:42;52052.00;;;-140.72;0.00
38197;BME280;26543;51.976;4.616;2023-05-19T09:58:08;52031.72;;;-140.72;0.00
38197;BME280;26543;51.976;4.616;2023-05-19T10:00:33;52031.72;;;-140.72;0.00
38197;BME280;26543;51.976;4.616;2023-05-19T10:02:59;51966.81;;;-140.72;0.00
38197;BME280;26543;51.976;4.616;2023-05-19T10:05:25;51948.53;;;-140.72;0.00
38197;BME280;26543;51.976;4.616;2023-05-19T10:07:51;52005.34;;;-140.72;0.00
38197;BME280;26543;51.976;4.616;2023-05-19T10:10:17;52021.56;;;-140.72;0.00
38197;BME280;26543;51.976;4.616;2023-05-19T10:12:44;51964.78;;;-140.72;0.00
38197;BME280;26543;51.976;4.616;2023-05-19T10:15:10;51954.63;;;-140.72;0.00
38197;BME280;26543;51.976;4.616;2023-05-19T10:17:39;51918.09;;;-140.72;0.00
38197;BME280;26543;51.976;4.616;2023-05-19T10:20:14;51914.03;;;-140.72;0.00
38197;BME280;26543;51.976;4.616;2023-05-19T10:22:41;51942.44;;;-140.72;0.00
38197;BME280;26543;51.976;4.616;2023-05-19T10:25:07;52009.41;;;-140.72;0.00
38197;BME280;26543;51.976;4.616;2023-05-19T10:27:35;52017.53;;;-140.72;0.00
38197;BME280;26543;51.976;4.616;2023-05-19T10:30:03;52001.28;;;-140.72;0.00
38197;BME280;26543;51.976;4.616;2023-05-19T10:32:30;51976.94;;;-140.72;0.00
38197;BME280;26543;51.976;4.616;2023-05-19T10:35:02;51989.13;;;-140.72;0.00
38197;BME280;26543;51.976;4.616;2023-05-19T10:40:11;52001.28;;;-140.72;0.00
38197;BME280;26543;51.976;4.616;2023-05-19T10:42:49;51956.66;;;-140.72;0.00
38197;BME280;26543;51.976;4.616;2023-05-19T10:45:19;51960.72;;;-140.72;0.00
38197;BME280;26543;51.976;4.616;2023-05-19T10:47:45;51964.78;;;-140.72;0.00
38197;BME280;26543;51.976;4.616;2023-05-19T10:50:10;51974.91;;;-140.72;0.00
38197;BME280;26543;51.976;4.616;2023-05-19T10:52:36;51976.94;;;-140.72;0.00
38197;BME280;26543;51.976;4.616;2023-05-19T10:55:01;51936.38;;;-140.72;0.00
38197;BME280;26543;51.976;4.616;2023-05-19T10:57:27;52001.28;;;-140.72;0.00
38197;BME280;26543;51.976;4.616;2023-05-19T10:59:52;52088.53;;;-140.72;0.00
38197;BME280;26543;51.976;4.616;2023-05-19T11:02:38;51938.41;;;-140.72;0.00
38197;BME280;26543;51.976;4.616;2023-05-19T11:07:33;51857.25;;;-140.72;0.00
38197;BME280;26543;51.976;4.616;2023-05-19T11:09:58;51796.38;;;-140.72;0.00
38197;BME280;26543;51.976;4.616;2023-05-19T11:12:24;51841.00;;;-140.72;0.00
38197;BME280;26543;51.976;4.616;2023-05-19T11:14:52;51928.25;;;-140.72;0.00
38197;BME280;26543;51.976;4.616;2023-05-19T11:17:18;52015.50;;;-140.72;0.00
38197;BME280;26543;51.976;4.616;2023-05-19T11:19:52;51873.47;;;-140.72;0.00
38197;BME280;26543;51.976;4.616;2023-05-19T11:22:21;51966.81;;;-140.72;0.00
38197;BME280;26543;51.976;4.616;2023-05-19T11:24:46;51930.28;;;-140.72;0.00
38197;BME280;26543;51.976;4.616;2023-05-19T11:29:41;51881.59;;;-140.72;0.00
38197;BME280;26543;51.976;4.616;2023-05-19T11:32:06;51838.97;;;-140.72;0.00
38197;BME280;26543;51.976;4.616;2023-05-19T11:34:32;51828.84;;;-140.72;0.00
38197;BME280;26543;51.976;4.616;2023-05-19T11:36:59;51826.81;;;-140.72;0.00
38197;BME280;26543;51.976;4.616;2023-05-19T11:39:25;51836.94;;;-140.72;0.00
38197;BME280;26543;51.976;4.616;2023-05-19T11:41:51;51905.94;;;-140.72;0.00
38197;BME280;26543;51.976;4.616;2023-05-19T11:44:19;51843.03;;;-140.72;0.00
38197;BME280;26543;51.976;4.616;2023-05-19T11:46:44;51804.50;;;-140.72;0.00
38197;BME280;26543;51.976;4.616;2023-05-19T11:49:09;51838.97;;;-140.72;0.00
38197;BME280;26543;51.976;4.616;2023-05-19T11:51:34;51820.72;;;-140.72;0.00
38197;BME280;26543;51.976;4.616;2023-05-19T11:54:01;51794.34;;;-140.72;0.00
38197;BME280;26543;51.976;4.616;2023-05-19T11:56:27;51800.44;;;-140.72;0.00
38197;BME280;26543;51.976;4.616;2023-05-19T11:58:57;51778.13;;;-140.72;0.00
38197;BME280;26543;51.976;4.616;2023-05-19T12:01:22;51735.50;;;-140.72;0.00
38197;BME280;26543;51.976;4.616;2023-05-19T12:03:49;51707.09;;;-140.72;0.00
38197;BME280;26543;51.976;4.616;2023-05-19T12:06:15;51723.34;;;-140.72;0.00
38197;BME280;26543;51.976;4.616;2023-05-19T12:08:41;51731.44;;;-140.72;0.00
38197;BME280;26543;51.976;4.616;2023-05-19T12:11:06;51784.19;;;-140.72;0.00
38197;BME280;26543;51.976;4.616;2023-05-19T12:13:31;51776.09;;;-140.72;0.00
38197;BME280;26543;51.976;4.616;2023-05-19T12:16:00;51767.97;;;-140.72;0.00
38197;BME280;26543;51.976;4.616;2023-05-19T12:18:30;51759.84;;;-140.72;0.00
38197;BME280;26543;51.976;4.616;2023-05-19T12:21:00;51733.47;;;-140.72;0.00
38197;BME280;26543;51.976;4.616;2023-05-19T12:23:25;51690.88;;;-140.72;0.00
38197;BME280;26543;51.976;4.616;2023-05-19T12:25:51;51763.91;;;-140.72;0.00
38197;BME280;26543;51.976;4.616;2023-05-19T12:28:18;51759.84;;;-140.72;0.00
38197;BME280;26543;51.976;4.616;2023-05-19T12:30:49;51745.66;;;-140.72;0.00
38197;BME280;26543;51.976;4.616;2023-05-19T12:33:16;51826.81;;;-140.72;0.00
38197;BME280;26543;51.976;4.616;2023-05-19T12:35:43;51820.72;;;-140.72;0.00
38197;BME280;26543;51.976;4.616;2023-05-19T12:38:08;51812.59;;;-140.72;0.00
38197;BME280;26543;51.976;4.616;2023-05-19T12:40:33;51806.53;;;-140.72;0.00
38197;BME280;26543;51.976;4.616;2023-05-19T12:42:59;51761.88;;;-140.72;0.00
38197;BME280;26543;51.976;4.616;2023-05-19T12:45:24;51843.03;;;-140.72;0.00
38197;BME280;26543;51.976;4.616;2023-05-19T12:47:52;51838.97;;;-140.72;0.00
38197;BME280;26543;51.976;4.616;2023-05-19T12:50:17;51794.34;;;-140.72;0.00
38197;BME280;26543;51.976;4.616;2023-05-19T12:52:46;51765.94;;;-140.72;0.00
38197;BME280;26543;51.976;4.616;2023-05-19T12:55:12;51796.38;;;-140.72;0.00
38197;BME280;26543;51.976;4.616;2023-05-19T12:57:39;51916.06;;;-140.72;0.00
38197;BME280;26543;51.976;4.616;2023-05-19T13:00:05;51818.69;;;-140.72;0.00
38197;BME280;26543;51.976;4.616;2023-05-19T13:02:34;51822.75;;;-140.72;0.00